TimeEDT,TemperatureF,Dew PointF,Humidity,Sea Level PressureIn,VisibilityMPH,Wind Direction,Wind SpeedMPH,Gust SpeedMPH,PrecipitationIn,Events,Conditions,WindDirDegrees,DateUTC
12:15 AM,60.3,58.1,93,29.61,7.0,South,4.6,-,N/A,Rain,Light Rain,170,2013-04-12 04:15:00
12:35 AM,60.1,58.1,93,29.58,10.0,ESE,4.6,-,N/A,Rain,Light Rain,110,2013-04-12 04:35:00
12:55 AM,59.9,58.1,94,29.56,10.0,SE,5.8,-,N/A,Rain,Light Rain,130,2013-04-12 04:55:00
1:15 AM,60.1,58.1,93,29.54,10.0,SE,11.5,-,N/A,Rain,Light Rain,140,2013-04-12 05:15:00
1:35 AM,60.3,57.4,90,29.55,10.0,SW,5.8,-,N/A,Rain,Light Rain,230,2013-04-12 05:35:00
1:55 AM,59.9,57.2,91,29.54,10.0,Calm,Calm,-,N/A,,Scattered Clouds,0,2013-04-12 05:55:00
2:15 AM,59.4,56.8,91,29.55,10.0,South,4.6,-,N/A,,Scattered Clouds,190,2013-04-12 06:15:00
2:35 AM,59.2,56.8,92,29.54,10.0,South,5.8,-,N/A,,Mostly Cloudy,180,2013-04-12 06:35:00
2:55 AM,59.0,56.7,92,29.53,10.0,South,4.6,-,N/A,,Mostly Cloudy,180,2013-04-12 06:55:00
3:15 AM,59.0,56.5,91,29.53,10.0,South,3.5,-,N/A,,Overcast,170,2013-04-12 07:15:00
3:35 AM,59.0,56.5,91,29.52,10.0,SSE,5.8,-,N/A,,Overcast,150,2013-04-12 07:35:00
3:55 AM,59.2,56.5,91,29.52,10.0,WSW,6.9,-,N/A,Rain,Rain,240,2013-04-12 07:55:00
4:15 AM,58.5,56.5,93,29.53,7.0,South,4.6,-,N/A,Rain,Rain,190,2013-04-12 08:15:00
4:35 AM,58.5,56.7,94,29.51,10.0,South,3.5,-,N/A,Rain,Rain,170,2013-04-12 08:35:00
4:55 AM,58.3,56.7,94,29.50,10.0,SSE,3.5,-,N/A,Rain,Rain,160,2013-04-12 08:55:00
5:15 AM,58.3,56.7,94,29.50,7.0,South,4.6,-,N/A,Rain,Rain,170,2013-04-12 09:15:00
5:35 AM,58.3,56.7,94,29.51,7.0,WSW,3.5,-,N/A,Rain,Rain,240,2013-04-12 09:35:00
5:55 AM,58.1,56.5,94,29.52,10.0,SSW,5.8,-,N/A,Rain,Light Rain,200,2013-04-12 09:55:00
6:15 AM,58.5,56.7,94,29.53,10.0,SW,6.9,-,N/A,Rain,Light Rain,230,2013-04-12 10:15:00
6:35 AM,58.3,55.8,91,29.55,7.0,West,17.3,-,N/A,,Overcast,280,2013-04-12 10:35:00
6:55 AM,56.5,52.7,87,29.57,10.0,West,9.2,-,N/A,,Light Drizzle,280,2013-04-12 10:55:00
7:15 AM,55.8,51.8,87,29.58,10.0,West,11.5,20.7,N/A,,Overcast,280,2013-04-12 11:15:00
7:35 AM,55.4,52.0,88,29.60,10.0,West,13.8,18.4,N/A,,Overcast,270,2013-04-12 11:35:00
7:55 AM,54.5,50.9,88,29.62,7.0,West,12.7,-,N/A,,Overcast,260,2013-04-12 11:55:00
8:15 AM,54.0,50.4,88,29.63,10.0,West,12.7,16.1,N/A,,Overcast,260,2013-04-12 12:15:00
8:35 AM,54.3,50.9,88,29.65,10.0,WSW,8.1,-,N/A,,Overcast,250,2013-04-12 12:35:00
8:55 AM,54.0,50.0,86,29.66,10.0,West,12.7,-,N/A,,Overcast,260,2013-04-12 12:55:00
9:15 AM,53.6,50.0,88,29.67,10.0,West,15.0,-,N/A,,Overcast,260,2013-04-12 13:15:00
9:35 AM,53.6,48.9,84,29.68,10.0,WSW,16.1,-,N/A,,Overcast,250,2013-04-12 13:35:00
9:55 AM,51.4,47.7,87,29.69,7.0,West,13.8,-,N/A,,Overcast,270,2013-04-12 13:55:00
10:15 AM,52.5,46.9,81,29.70,10.0,WSW,15.0,18.4,N/A,,Overcast,250,2013-04-12 14:15:00
10:35 AM,52.0,45.9,80,29.71,10.0,WSW,18.4,21.9,N/A,,Overcast,240,2013-04-12 14:35:00
10:55 AM,51.1,44.1,77,29.72,10.0,WSW,15.0,21.9,N/A,,Overcast,250,2013-04-12 14:55:00
11:15 AM,49.6,43.2,78,29.73,10.0,WSW,18.4,24.2,N/A,,Overcast,250,2013-04-12 15:15:00
11:35 AM,48.7,41.7,77,29.74,10.0,SW,15.0,24.2,N/A,,Overcast,230,2013-04-12 15:35:00
11:55 AM,50.0,40.6,70,29.75,10.0,SW,15.0,24.2,N/A,,Overcast,230,2013-04-12 15:55:00
12:15 PM,51.6,39.9,64,29.74,10.0,WSW,20.7,26.5,N/A,,Mostly Cloudy,250,2013-04-12 16:15:00
12:35 PM,51.3,39.0,63,29.75,10.0,WSW,21.9,27.6,N/A,,Overcast,250,2013-04-12 16:35:00
12:55 PM,50.2,38.1,63,29.76,10.0,WSW,19.6,28.8,N/A,,Overcast,250,2013-04-12 16:55:00
1:15 PM,49.3,37.4,64,29.77,10.0,West,20.7,32.2,N/A,,Overcast,260,2013-04-12 17:15:00
1:35 PM,49.1,36.9,63,29.77,10.0,WSW,19.6,27.6,N/A,,Overcast,250,2013-04-12 17:35:00
1:55 PM,49.5,35.8,59,29.78,10.0,WSW,18.4,29.9,N/A,,Overcast,240,2013-04-12 17:55:00
2:15 PM,49.6,35.6,59,29.78,10.0,WSW,18.4,27.6,N/A,,Overcast,250,2013-04-12 18:15:00
2:35 PM,51.3,35.2,54,29.78,10.0,SW,20.7,28.8,N/A,,Mostly Cloudy,230,2013-04-12 18:35:00
2:55 PM,51.6,35.2,54,29.78,10.0,WSW,15.0,23.0,N/A,,Mostly Cloudy,250,2013-04-12 18:55:00
3:15 PM,51.1,34.0,52,29.78,10.0,SSW,13.8,19.6,N/A,,Overcast,210,2013-04-12 19:15:00
3:35 PM,51.6,34.3,52,29.77,10.0,WSW,15.0,21.9,N/A,,Mostly Cloudy,240,2013-04-12 19:35:00
3:55 PM,51.8,34.5,52,29.78,10.0,WSW,11.5,23.0,N/A,,Mostly Cloudy,240,2013-04-12 19:55:00
4:15 PM,51.8,32.9,49,29.78,10.0,WSW,18.4,27.6,N/A,,Overcast,250,2013-04-12 20:15:00
4:35 PM,52.0,33.8,50,29.79,10.0,WSW,13.8,20.7,N/A,,Overcast,240,2013-04-12 20:35:00
4:55 PM,52.0,33.3,49,29.79,10.0,WSW,16.1,23.0,N/A,,Overcast,240,2013-04-12 20:55:00
5:15 PM,51.8,33.3,49,29.80,10.0,West,16.1,21.9,N/A,,Overcast,260,2013-04-12 21:15:00
5:35 PM,51.1,32.9,50,29.81,10.0,West,13.8,-,N/A,,Overcast,260,2013-04-12 21:35:00
5:55 PM,51.3,33.3,50,29.81,10.0,WSW,15.0,-,N/A,,Overcast,250,2013-04-12 21:55:00
6:15 PM,51.3,32.9,50,29.82,10.0,WSW,15.0,-,N/A,,Overcast,240,2013-04-12 22:15:00
6:35 PM,51.1,33.1,50,29.83,10.0,WSW,16.1,21.9,N/A,,Overcast,250,2013-04-12 22:35:00
6:55 PM,50.9,33.6,52,29.84,10.0,WSW,11.5,17.3,N/A,,Overcast,240,2013-04-12 22:55:00
7:15 PM,50.5,33.6,52,29.84,10.0,WSW,8.1,-,N/A,,Overcast,240,2013-04-12 23:15:00
7:35 PM,50.4,34.2,54,29.84,10.0,WSW,8.1,-,N/A,,Overcast,240,2013-04-12 23:35:00
7:55 PM,50.4,34.0,53,29.84,10.0,WSW,8.1,-,N/A,,Overcast,250,2013-04-12 23:55:00
8:15 PM,50.2,34.3,55,29.85,10.0,West,6.9,-,N/A,,Overcast,260,2013-04-13 00:15:00
8:35 PM,50.0,34.0,54,29.85,10.0,West,10.4,-,N/A,,Overcast,270,2013-04-13 00:35:00
8:55 PM,50.0,34.2,55,29.86,10.0,West,6.9,-,N/A,,Overcast,270,2013-04-13 00:55:00
9:15 PM,49.5,34.3,56,29.87,10.0,West,9.2,-,N/A,,Overcast,280,2013-04-13 01:15:00
9:35 PM,49.1,34.7,58,29.88,10.0,West,11.5,17.3,N/A,,Overcast,280,2013-04-13 01:35:00
9:55 PM,48.4,34.7,59,29.89,10.0,WNW,13.8,18.4,N/A,,Overcast,290,2013-04-13 01:55:00
10:15 PM,47.7,34.5,60,29.90,10.0,West,9.2,-,N/A,,Overcast,280,2013-04-13 02:15:00
10:35 PM,47.5,34.9,62,29.91,10.0,WNW,5.8,-,N/A,,Overcast,290,2013-04-13 02:35:00
10:55 PM,47.5,34.2,60,29.91,10.0,WNW,10.4,-,N/A,,Overcast,290,2013-04-13 02:55:00
11:15 PM,47.3,34.2,60,29.92,10.0,West,5.8,-,N/A,,Overcast,280,2013-04-13 03:15:00
11:35 PM,46.6,32.4,58,29.92,10.0,WNW,12.7,-,N/A,,Overcast,290,2013-04-13 03:35:00
11:55 PM,46.4,32.0,57,29.92,10.0,West,12.7,-,N/A,,Overcast,280,2013-04-13 03:55:00